Time;durP1;ratioP1;P1;durP2;ratioP2;P2;SDS_P1;SDS_P2;PMS_P1;PMS_P2;Temp;Humidity;BMP_temperature;BMP_pressure;BME280_temperature;BME280_humidity;BME280_pressure;Samples;Min_cycle;Max_cycle;Signal;HPM_P1;HPM_P2
2021/03/21 00:00:44;;;;;;;37.03;18.97;;;;;;;;;;781240;179;919229;-73
2021/03/21 00:03:10;;;;;;;38.23;20.97;;;;;;;;;;773856;179;919136;-72
2021/03/21 00:05:36;;;;;;;39.37;21.13;;;;;;;;;;777754;179;918529;-72
2021/03/21 00:08:03;;;;;;;36.53;19.53;;;;;;;;;;775624;179;920301;-72
2021/03/21 00:10:28;;;;;;;39.20;22.23;;;;;;;;;;779936;179;917443;-72
2021/03/21 00:12:54;;;;;;;37.63;20.12;;;;;;;;;;776441;179;918658;-74
2021/03/21 00:15:21;;;;;;;43.10;22.77;;;;;;;;;;778907;179;919596;-73
2021/03/21 00:17:46;;;;;;;34.83;19.47;;;;;;;;;;773887;179;983409;-73
2021/03/21 00:20:13;;;;;;;36.28;22.37;;;;;;;;;;764990;182;916527;-72
2021/03/21 00:22:39;;;;;;;39.43;19.97;;;;;;;;;;775624;179;913067;-73
2021/03/21 00:25:08;;;;;;;39.50;20.03;;;;;;;;;;772449;179;914960;-72
2021/03/21 00:27:34;;;;;;;40.57;22.83;;;;;;;;;;782716;179;914781;-74
2021/03/21 00:30:00;;;;;;;44.33;20.98;;;;;;;;;;773614;179;913872;-74
2021/03/21 00:32:26;;;;;;;40.93;22.13;;;;;;;;;;777208;179;912106;-74
2021/03/21 00:34:52;;;;;;;36.83;21.20;;;;;;;;;;780082;179;926082;-75
2021/03/21 00:37:18;;;;;;;50.90;26.37;;;;;;;;;;779914;178;914916;-73
2021/03/21 00:39:43;;;;;;;43.55;24.40;;;;;;;;;;772280;178;1632971;-75
2021/03/21 00:42:09;;;;;;;39.80;23.53;;;;;;;;;;778766;178;919141;-75
2021/03/21 00:44:35;;;;;;;50.30;27.57;;;;;;;;;;782380;178;918516;-75
2021/03/21 00:47:01;;;;;;;46.30;25.52;;;;;;;;;;779216;178;919027;-74
2021/03/21 00:49:27;;;;;;;47.37;23.90;;;;;;;;;;776243;178;918652;-74
2021/03/21 00:51:53;;;;;;;49.17;25.33;;;;;;;;;;784134;178;917420;-74
2021/03/21 00:54:18;;;;;;;46.63;24.07;;;;;;;;;;775536;178;918395;-74
2021/03/21 00:56:44;;;;;;;43.80;26.02;;;;;;;;;;777990;179;919201;-75
2021/03/21 00:59:10;;;;;;;49.80;25.27;;;;;;;;;;782896;179;917634;-75
2021/03/21 01:01:36;;;;;;;51.03;26.47;;;;;;;;;;771925;179;1744383;-73
2021/03/21 01:04:02;;;;;;;44.73;24.63;;;;;;;;;;778532;179;919328;-75
2021/03/21 01:06:28;;;;;;;43.43;24.67;;;;;;;;;;780219;179;918627;-75
2021/03/21 01:08:54;;;;;;;43.80;23.50;;;;;;;;;;777695;179;918354;-74
2021/03/21 01:11:23;;;;;;;44.27;23.87;;;;;;;;;;777987;179;919151;-74
2021/03/21 01:13:49;;;;;;;41.10;21.87;;;;;;;;;;778340;179;919575;-75
2021/03/21 01:16:15;;;;;;;52.97;23.83;;;;;;;;;;780143;179;925237;-73
2021/03/21 01:18:40;;;;;;;51.40;25.50;;;;;;;;;;780944;179;914429;-73
2021/03/21 01:21:11;;;;;;;46.30;24.63;;;;;;;;;;761275;179;3796178;-73
2021/03/21 01:23:32;;;;;;;39.40;22.60;;;;;;;;;;783925;179;919023;-74
2021/03/21 01:25:58;;;;;;;37.87;23.57;;;;;;;;;;777107;179;918418;-74
2021/03/21 01:28:24;;;;;;;32.95;20.05;;;;;;;;;;778036;179;919456;-73
2021/03/21 01:30:50;;;;;;;87.97;22.00;;;;;;;;;;777692;179;920399;-74
2021/03/21 01:33:15;;;;;;;42.27;21.70;;;;;;;;;;782596;179;919592;-74
2021/03/21 01:35:42;;;;;;;43.33;21.07;;;;;;;;;;781967;179;631508;-72
2021/03/21 01:38:08;;;;;;;42.30;20.60;;;;;;;;;;778995;179;906546;-74
2021/03/21 01:40:33;;;;;;;29.93;19.33;;;;;;;;;;782422;179;914155;-74
2021/03/21 01:42:59;;;;;;;30.37;19.12;;;;;;;;;;778994;179;623810;-73
2021/03/21 01:45:28;;;;;;;38.13;19.63;;;;;;;;;;781884;179;633666;-74
2021/03/21 01:47:54;;;;;;;38.47;19.83;;;;;;;;;;781876;176;919118;-74
2021/03/21 01:50:25;;;;;;;35.73;19.40;;;;;;;;;;782055;178;919421;-74
2021/03/21 01:52:51;;;;;;;34.43;20.03;;;;;;;;;;774693;178;1225136;-74
2021/03/21 01:55:16;;;;;;;39.70;19.20;;;;;;;;;;778517;179;918424;-74
2021/03/21 01:57:42;;;;;;;33.47;19.73;;;;;;;;;;782259;178;918137;-73
2021/03/21 02:00:09;;;;;;;38.90;20.67;;;;;;;;;;778739;178;918898;-73
2021/03/21 02:02:35;;;;;;;39.67;19.97;;;;;;;;;;773997;178;918938;-74
2021/03/21 02:05:01;;;;;;;37.50;20.93;;;;;;;;;;784627;178;898993;-74
2021/03/21 02:07:27;;;;;;;35.73;20.97;;;;;;;;;;776779;179;917888;-73
2021/03/21 02:09:53;;;;;;;47.07;23.20;;;;;;;;;;777367;179;919322;-72
2021/03/21 02:12:19;;;;;;;38.03;23.27;;;;;;;;;;779812;179;871156;-74
2021/03/21 02:14:48;;;;;;;40.90;20.87;;;;;;;;;;778883;179;919109;-73
2021/03/21 02:17:19;;;;;;;37.67;20.90;;;;;;;;;;778119;179;919271;-72
2021/03/21 02:19:51;;;;;;;68.63;28.43;;;;;;;;;;777982;179;916104;-74
2021/03/21 02:22:17;;;;;;;59.03;28.30;;;;;;;;;;783775;179;916264;-73
2021/03/21 02:24:53;;;;;;;48.80;25.77;;;;;;;;;;775475;179;916400;-72
2021/03/21 02:27:22;;;;;;;46.47;27.90;;;;;;;;;;778388;179;919816;-73
2021/03/21 02:29:49;;;;;;;44.43;22.83;;;;;;;;;;772131;179;1418980;-73
2021/03/21 02:32:17;;;;;;;38.57;23.57;;;;;;;;;;777476;179;918612;-73
2021/03/21 02:34:56;;;;;;;57.53;27.20;;;;;;;;;;777826;179;916814;-72
2021/03/21 02:37:26;;;;;;;91.00;38.65;;;;;;;;;;776062;179;919292;-73
2021/03/21 02:39:54;;;;;;;58.43;27.40;;;;;;;;;;773195;179;918829;-71
2021/03/21 02:42:21;;;;;;;38.70;21.50;;;;;;;;;;775043;179;917052;-71
2021/03/21 02:44:47;;;;;;;42.90;21.80;;;;;;;;;;780772;179;921604;-73
2021/03/21 02:47:13;;;;;;;34.27;21.20;;;;;;;;;;777834;179;919156;-72
2021/03/21 02:49:39;;;;;;;30.17;19.70;;;;;;;;;;776684;179;919082;-72
2021/03/21 02:52:05;;;;;;;37.13;23.23;;;;;;;;;;771266;180;919381;-72
2021/03/21 02:54:32;;;;;;;39.13;22.70;;;;;;;;;;775480;175;1020561;-72
2021/03/21 02:57:00;;;;;;;52.60;22.93;;;;;;;;;;777512;179;1018648;-72
2021/03/21 02:59:26;;;;;;;47.60;22.80;;;;;;;;;;775333;177;918699;-72
2021/03/21 03:01:52;;;;;;;38.37;21.13;;;;;;;;;;785505;178;887403;-72
2021/03/21 03:04:18;;;;;;;35.10;20.07;;;;;;;;;;776975;178;919046;-73
2021/03/21 03:06:44;;;;;;;35.85;20.65;;;;;;;;;;776258;178;1037218;-73
2021/03/21 03:09:10;;;;;;;40.90;20.63;;;;;;;;;;783726;178;919214;-73
2021/03/21 03:11:36;;;;;;;37.97;20.13;;;;;;;;;;777187;178;918944;-73
2021/03/21 03:14:02;;;;;;;31.93;19.60;;;;;;;;;;778664;178;919105;-74
2021/03/21 03:16:31;;;;;;;40.37;20.90;;;;;;;;;;775728;178;918743;-72
2021/03/21 03:19:12;;;;;;;34.97;19.60;;;;;;;;;;780029;178;917814;-72
2021/03/21 03:21:39;;;;;;;36.03;20.47;;;;;;;;;;771016;182;918731;-72
2021/03/21 03:24:08;;;;;;;33.80;19.30;;;;;;;;;;778385;179;915739;-72
2021/03/21 03:26:49;;;;;;;37.40;19.47;;;;;;;;;;776564;179;918721;-73
2021/03/21 03:29:15;;;;;;;33.03;18.87;;;;;;;;;;775953;179;1020487;-73
2021/03/21 03:31:43;;;;;;;29.07;16.57;;;;;;;;;;781156;179;919887;-73
2021/03/21 03:34:09;;;;;;;31.10;18.20;;;;;;;;;;778238;179;919181;-72
2021/03/21 03:36:35;;;;;;;34.80;19.53;;;;;;;;;;775638;179;918433;-72
2021/03/21 03:39:01;;;;;;;36.10;20.00;;;;;;;;;;776217;179;918873;-71
2021/03/21 03:41:28;;;;;;;38.50;21.30;;;;;;;;;;776646;177;917623;-72
2021/03/21 03:44:00;;;;;;;33.90;18.30;;;;;;;;;;773382;179;1328680;-73
2021/03/21 03:46:30;;;;;;;36.53;21.85;;;;;;;;;;778570;179;913720;-72
2021/03/21 03:48:57;;;;;;;27.87;16.27;;;;;;;;;;776868;179;918598;-73
2021/03/21 03:51:24;;;;;;;34.93;19.33;;;;;;;;;;777923;179;909700;-73
2021/03/21 03:53:52;;;;;;;31.13;16.63;;;;;;;;;;778124;179;912621;-73
2021/03/21 03:56:19;;;;;;;33.78;18.58;;;;;;;;;;770442;179;1819427;-71
2021/03/21 03:59:01;;;;;;;32.67;17.00;;;;;;;;;;783347;179;918538;-73
2021/03/21 04:01:27;;;;;;;30.87;18.27;;;;;;;;;;772252;182;919425;-75
2021/03/21 04:03:53;;;;;;;32.72;17.45;;;;;;;;;;767961;182;918649;-73
2021/03/21 04:06:19;;;;;;;30.13;18.33;;;;;;;;;;776495;179;917992;-71
2021/03/21 04:08:48;;;;;;;36.80;16.70;;;;;;;;;;774622;179;919899;-71
2021/03/21 04:11:15;;;;;;;33.07;17.80;;;;;;;;;;772135;180;936995;-70
2021/03/21 04:13:43;;;;;;;25.60;17.00;;;;;;;;;;777225;178;920060;-72
2021/03/21 04:16:10;;;;;;;31.20;17.17;;;;;;;;;;778399;178;917805;-71
2021/03/21 04:18:39;;;;;;;41.27;19.37;;;;;;;;;;780786;178;916704;-72
2021/03/21 04:21:08;;;;;;;34.20;16.20;;;;;;;;;;768931;182;941675;-72
2021/03/21 04:23:37;;;;;;;36.13;18.63;;;;;;;;;;770500;179;919040;-72
2021/03/21 04:26:05;;;;;;;26.50;17.20;;;;;;;;;;776403;178;920636;-71
2021/03/21 04:28:41;;;;;;;35.00;17.10;;;;;;;;;;780733;178;917885;-71
2021/03/21 04:31:07;;;;;;;30.33;16.60;;;;;;;;;;776053;182;920234;-71
2021/03/21 04:33:33;;;;;;;35.90;16.83;;;;;;;;;;778147;179;917804;-71
2021/03/21 04:36:00;;;;;;;37.13;18.20;;;;;;;;;;777458;179;918594;-70
2021/03/21 04:38:40;;;;;;;36.37;17.67;;;;;;;;;;780826;179;917244;-69
2021/03/21 04:41:06;;;;;;;37.43;18.23;;;;;;;;;;775808;182;919600;-70
2021/03/21 04:43:32;;;;;;;34.30;19.07;;;;;;;;;;775033;179;1169622;-70
2021/03/21 04:45:58;;;;;;;32.40;18.30;;;;;;;;;;777384;179;919079;-71
2021/03/21 04:48:24;;;;;;;39.90;15.70;;;;;;;;;;780115;179;919369;-71
2021/03/21 04:50:50;;;;;;;31.20;15.35;;;;;;;;;;778275;179;918807;-71
2021/03/21 04:53:20;;;;;;;41.47;18.00;;;;;;;;;;779214;179;919095;-70
2021/03/21 04:55:45;;;;;;;30.73;15.38;;;;;;;;;;777126;179;919440;-71
2021/03/21 04:58:15;;;;;;;31.47;15.07;;;;;;;;;;776103;179;2108228;-70
2021/03/21 05:00:41;;;;;;;28.97;14.87;;;;;;;;;;776424;179;956676;-71
2021/03/21 05:03:09;;;;;;;37.70;15.60;;;;;;;;;;783006;179;644420;-70
2021/03/21 05:05:36;;;;;;;43.27;18.20;;;;;;;;;;780830;179;708492;-71
2021/03/21 05:08:02;;;;;;;45.57;16.00;;;;;;;;;;781453;179;630331;-71
2021/03/21 05:10:31;;;;;;;38.90;18.53;;;;;;;;;;774825;179;915877;-71
2021/03/21 05:12:57;;;;;;;57.40;23.43;;;;;;;;;;775120;179;921233;-70
2021/03/21 05:15:25;;;;;;;46.50;21.37;;;;;;;;;;781164;179;853937;-70
2021/03/21 05:17:52;;;;;;;28.13;14.40;;;;;;;;;;776592;179;918724;-70
2021/03/21 05:20:17;;;;;;;27.97;16.73;;;;;;;;;;775962;179;918935;-69
2021/03/21 05:22:43;;;;;;;32.70;15.35;;;;;;;;;;783889;176;919027;-71
2021/03/21 05:25:09;;;;;;;46.73;19.97;;;;;;;;;;772586;178;1567587;-70
2021/03/21 05:27:37;;;;;;;34.50;15.87;;;;;;;;;;780320;178;917761;-70
2021/03/21 05:30:07;;;;;;;33.60;18.80;;;;;;;;;;775891;178;919367;-70
2021/03/21 05:32:33;;;;;;;36.33;15.67;;;;;;;;;;779768;179;919680;-69
2021/03/21 05:35:00;;;;;;;39.13;15.07;;;;;;;;;;775593;178;1237572;-69
2021/03/21 05:37:29;;;;;;;43.40;20.07;;;;;;;;;;779815;178;919458;-70
2021/03/21 05:40:12;;;;;;;39.08;18.70;;;;;;;;;;779675;178;919518;-69
2021/03/21 05:42:38;;;;;;;34.40;14.33;;;;;;;;;;774169;179;921877;-68
2021/03/21 05:45:04;;;;;;;69.07;25.83;;;;;;;;;;771967;182;919285;-70
2021/03/21 05:47:46;;;;;;;63.83;25.63;;;;;;;;;;770484;178;919209;-69
2021/03/21 05:50:16;;;;;;;75.90;26.93;;;;;;;;;;764105;179;918781;-69
2021/03/21 05:52:54;;;;;;;30.50;15.23;;;;;;;;;;774503;179;916516;-68
2021/03/21 05:55:37;;;;;;;28.63;14.47;;;;;;;;;;776196;179;919541;-69
2021/03/21 05:58:08;;;;;;;24.97;12.40;;;;;;;;;;775630;179;918812;-69
2021/03/21 06:00:50;;;;;;;32.90;15.60;;;;;;;;;;785297;179;814936;-69
2021/03/21 06:03:34;;;;;;;18.30;10.60;;;;;;;;;;772307;179;919468;-69
2021/03/21 06:06:14;;;;;;;36.30;12.57;;;;;;;;;;763280;182;918786;-70
2021/03/21 06:08:56;;;;;;;24.53;13.57;;;;;;;;;;769735;182;919074;-69
2021/03/21 06:11:25;;;;;;;24.93;11.10;;;;;;;;;;756930;182;1171018;-68
2021/03/21 06:13:54;;;;;;;21.37;11.37;;;;;;;;;;776316;179;919591;-68
2021/03/21 06:16:35;;;;;;;16.63;9.53;;;;;;;;;;779742;179;917727;-71
2021/03/21 06:19:07;;;;;;;28.60;12.43;;;;;;;;;;773245;179;919178;-69
2021/03/21 06:21:39;;;;;;;31.43;12.33;;;;;;;;;;779429;179;919048;-69
2021/03/21 06:24:04;;;;;;;25.80;10.90;;;;;;;;;;780999;178;920146;-69
2021/03/21 06:26:45;;;;;;;34.93;12.97;;;;;;;;;;777286;179;919463;-69
2021/03/21 06:29:16;;;;;;;26.40;10.93;;;;;;;;;;775095;179;919117;-68
2021/03/21 06:32:00;;;;;;;25.13;11.50;;;;;;;;;;778081;179;919331;-68
2021/03/21 06:34:32;;;;;;;16.33;8.80;;;;;;;;;;763040;178;916318;-69
2021/03/21 06:36:58;;;;;;;26.42;12.65;;;;;;;;;;779731;178;919242;-70
2021/03/21 06:39:36;;;;;;;13.13;7.67;;;;;;;;;;780647;178;918357;-69
2021/03/21 06:42:07;;;;;;;22.30;9.23;;;;;;;;;;776629;179;942818;-72
2021/03/21 06:44:48;;;;;;;19.67;10.00;;;;;;;;;;779485;178;916908;-69
2021/03/21 06:47:20;;;;;;;18.37;7.80;;;;;;;;;;772785;178;920934;-69
2021/03/21 06:49:51;;;;;;;18.47;10.10;;;;;;;;;;772921;178;1611187;-69
2021/03/21 06:52:21;;;;;;;15.63;8.20;;;;;;;;;;777555;178;920471;-70
2021/03/21 06:54:53;;;;;;;17.97;10.57;;;;;;;;;;778892;179;1054093;-69
2021/03/21 06:57:34;;;;;;;11.70;7.67;;;;;;;;;;775228;182;918984;-69
2021/03/21 07:00:02;;;;;;;23.10;8.00;;;;;;;;;;770132;182;919122;-71
2021/03/21 07:02:48;;;;;;;17.03;7.33;;;;;;;;;;777333;179;919219;-70
2021/03/21 07:05:14;;;;;;;25.13;9.47;;;;;;;;;;765275;179;918690;-70
2021/03/21 07:07:56;;;;;;;22.73;8.90;;;;;;;;;;774512;179;918981;-71
2021/03/21 07:10:26;;;;;;;16.47;8.03;;;;;;;;;;765924;179;627412;-72
2021/03/21 07:13:07;;;;;;;28.53;12.90;;;;;;;;;;779978;179;656633;-71
2021/03/21 07:15:42;;;;;;;35.13;16.23;;;;;;;;;;770353;182;1186422;-71
2021/03/21 07:18:24;;;;;;;11.70;7.07;;;;;;;;;;775728;182;639161;-71
2021/03/21 07:20:52;;;;;;;19.00;11.90;;;;;;;;;;761444;182;919725;-71
2021/03/21 07:23:34;;;;;;;95.00;32.23;;;;;;;;;;777273;179;921561;-71
2021/03/21 07:26:05;;;;;;;14.83;8.80;;;;;;;;;;767467;179;2072319;-70
2021/03/21 07:28:32;;;;;;;27.05;10.35;;;;;;;;;;780025;179;914083;-69
2021/03/21 07:31:00;;;;;;;30.80;12.20;;;;;;;;;;774209;179;906458;-68
2021/03/21 07:33:26;;;;;;;17.50;7.97;;;;;;;;;;779336;179;912154;-70
2021/03/21 07:35:54;;;;;;;26.33;11.50;;;;;;;;;;774603;179;918405;-70
2021/03/21 07:38:41;;;;;;;19.93;10.33;;;;;;;;;;775433;179;919988;-69
2021/03/21 07:41:07;;;;;;;26.90;10.63;;;;;;;;;;775537;179;918203;-70
2021/03/21 07:43:50;;;;;;;12.57;9.20;;;;;;;;;;781985;179;924005;-70
2021/03/21 07:46:21;;;;;;;39.67;14.57;;;;;;;;;;763941;178;918955;-68
2021/03/21 07:49:02;;;;;;;58.57;16.97;;;;;;;;;;775173;179;883158;-68
2021/03/21 07:51:44;;;;;;;23.00;11.38;;;;;;;;;;761954;182;918242;-69
2021/03/21 07:54:12;;;;;;;22.70;11.20;;;;;;;;;;774651;182;918994;-68
2021/03/21 07:56:41;;;;;;;25.90;12.70;;;;;;;;;;775235;178;918525;-67
2021/03/21 07:59:07;;;;;;;14.93;9.43;;;;;;;;;;777667;178;919281;-67
2021/03/21 08:01:33;;;;;;;25.43;11.80;;;;;;;;;;780425;178;957942;-67
2021/03/21 08:04:00;;;;;;;19.80;8.00;;;;;;;;;;773845;178;1793571;-68
2021/03/21 08:06:26;;;;;;;27.30;11.02;;;;;;;;;;775529;179;916718;-67
2021/03/21 08:08:57;;;;;;;21.53;11.07;;;;;;;;;;776419;179;918989;-66
2021/03/21 08:11:24;;;;;;;13.87;8.17;;;;;;;;;;780676;179;916695;-67
2021/03/21 08:13:48;;;;;;;16.33;8.93;;;;;;;;;;778351;179;919479;-67
2021/03/21 08:16:15;;;;;;;24.00;9.00;;;;;;;;;;776208;179;920694;-66
2021/03/21 08:18:40;;;;;;;20.53;9.13;;;;;;;;;;782286;179;918679;-66
2021/03/21 08:21:07;;;;;;;17.10;10.67;;;;;;;;;;778784;179;919379;-66
2021/03/21 08:23:34;;;;;;;8.07;6.20;;;;;;;;;;775543;179;916722;-67
2021/03/21 08:26:00;;;;;;;22.87;11.90;;;;;;;;;;776355;179;919229;-66
2021/03/21 08:28:35;;;;;;;13.07;7.20;;;;;;;;;;774887;176;919018;-66
2021/03/21 08:30:51;;;;;;;5.83;4.70;;;;;;;;;;776321;179;917992;-68
2021/03/21 08:33:23;;;;;;;19.00;9.47;;;;;;;;;;774951;179;922183;-66
2021/03/21 08:35:49;;;;;;;11.77;5.93;;;;;;;;;;781194;179;918731;-67
2021/03/21 08:38:15;;;;;;;13.20;7.37;;;;;;;;;;774460;179;918220;-67
2021/03/21 08:40:41;;;;;;;12.73;7.97;;;;;;;;;;776613;179;1021696;-66
2021/03/21 08:43:23;;;;;;;17.30;11.73;;;;;;;;;;784458;179;918594;-67
2021/03/21 08:45:49;;;;;;;16.30;9.17;;;;;;;;;;774725;182;915139;-67
2021/03/21 08:48:14;;;;;;;16.58;9.38;;;;;;;;;;775021;179;911869;-68
2021/03/21 08:50:41;;;;;;;21.00;9.23;;;;;;;;;;778225;179;919696;-68
2021/03/21 08:53:06;;;;;;;16.17;9.17;;;;;;;;;;775339;179;919239;-68
2021/03/21 08:55:32;;;;;;;12.43;6.60;;;;;;;;;;781274;179;918465;-67
2021/03/21 08:58:00;;;;;;;23.20;11.40;;;;;;;;;;778122;177;919301;-69
2021/03/21 09:00:25;;;;;;;9.93;6.47;;;;;;;;;;780668;178;918952;-68
2021/03/21 09:02:51;;;;;;;14.57;8.37;;;;;;;;;;784148;178;903329;-69
2021/03/21 09:05:17;;;;;;;20.43;9.93;;;;;;;;;;767793;178;2272732;-68
2021/03/21 09:07:43;;;;;;;20.23;10.17;;;;;;;;;;777292;178;919666;-68
2021/03/21 09:10:23;;;;;;;17.60;9.70;;;;;;;;;;781060;178;918710;-67
2021/03/21 09:12:49;;;;;;;20.27;7.17;;;;;;;;;;775341;182;923611;-67
2021/03/21 09:15:31;;;;;;;19.40;11.98;;;;;;;;;;778074;178;915152;-67
2021/03/21 09:18:01;;;;;;;16.50;9.50;;;;;;;;;;779147;179;915809;-68
2021/03/21 09:20:27;;;;;;;22.73;10.63;;;;;;;;;;777109;179;916043;-67
2021/03/21 09:22:53;;;;;;;51.63;20.20;;;;;;;;;;776311;179;932005;-67
2021/03/21 09:25:20;;;;;;;31.50;18.92;;;;;;;;;;777394;175;975614;-67
2021/03/21 09:27:46;;;;;;;15.80;9.07;;;;;;;;;;779487;179;919823;-68
2021/03/21 09:30:26;;;;;;;21.40;11.00;;;;;;;;;;773791;179;956643;-68
2021/03/21 09:32:54;;;;;;;17.70;9.67;;;;;;;;;;771227;179;936899;-69
2021/03/21 09:35:26;;;;;;;28.07;11.63;;;;;;;;;;780365;179;917725;-68
2021/03/21 09:37:52;;;;;;;41.20;13.47;;;;;;;;;;775639;179;920921;-68
2021/03/21 09:40:18;;;;;;;11.53;7.07;;;;;;;;;;775167;179;919323;-68
2021/03/21 09:42:44;;;;;;;39.23;15.60;;;;;;;;;;778803;179;860889;-67
2021/03/21 09:45:12;;;;;;;21.37;10.60;;;;;;;;;;779758;179;919031;-68
2021/03/21 09:47:38;;;;;;;35.10;16.87;;;;;;;;;;778661;179;919530;-67
2021/03/21 09:50:10;;;;;;;15.85;8.68;;;;;;;;;;774872;179;962405;-67
2021/03/21 09:52:37;;;;;;;22.03;10.20;;;;;;;;;;781589;179;918481;-67
2021/03/21 09:55:09;;;;;;;59.83;23.43;;;;;;;;;;772517;179;1020899;-70
2021/03/21 09:57:37;;;;;;;23.40;10.80;;;;;;;;;;776342;179;919449;-68
2021/03/21 10:00:04;;;;;;;22.37;13.20;;;;;;;;;;777217;179;919898;-72
2021/03/21 10:02:45;;;;;;;15.20;11.20;;;;;;;;;;781711;179;789793;-67
2021/03/21 10:05:11;;;;;;;25.30;13.60;;;;;;;;;;774614;179;918427;-69
2021/03/21 10:07:43;;;;;;;20.45;10.63;;;;;;;;;;775115;179;925122;-68
2021/03/21 10:10:09;;;;;;;15.50;10.17;;;;;;;;;;781110;177;918196;-69
2021/03/21 10:12:37;;;;;;;23.15;13.00;;;;;;;;;;776094;178;1021205;-68
2021/03/21 10:15:04;;;;;;;34.87;12.00;;;;;;;;;;781826;178;973791;-70
2021/03/21 10:17:38;;;;;;;12.70;8.33;;;;;;;;;;778933;178;920210;-69
2021/03/21 10:20:05;;;;;;;19.00;11.00;;;;;;;;;;777624;178;919207;-70
2021/03/21 10:22:45;;;;;;;17.40;8.83;;;;;;;;;;776428;178;915366;-69
2021/03/21 10:25:26;;;;;;;35.10;14.40;;;;;;;;;;776384;178;921687;-69
2021/03/21 10:27:52;;;;;;;22.85;12.63;;;;;;;;;;769302;179;945655;-69
2021/03/21 10:30:18;;;;;;;16.23;8.37;;;;;;;;;;774307;179;1255183;-69
2021/03/21 10:32:44;;;;;;;16.80;9.67;;;;;;;;;;778422;179;919270;-69
2021/03/21 10:35:14;;;;;;;21.87;11.13;;;;;;;;;;774810;179;937090;-67
2021/03/21 10:37:51;;;;;;;15.60;7.20;;;;;;;;;;776936;179;913349;-68
2021/03/21 10:40:21;;;;;;;16.00;10.03;;;;;;;;;;776753;179;918772;-70
2021/03/21 10:42:47;;;;;;;11.85;6.00;;;;;;;;;;774107;179;919405;-69
2021/03/21 10:45:12;;;;;;;21.33;12.57;;;;;;;;;;777946;179;934884;-70
2021/03/21 10:47:38;;;;;;;20.47;9.30;;;;;;;;;;777414;179;930901;-69
2021/03/21 10:50:05;;;;;;;19.37;8.43;;;;;;;;;;778810;179;919102;-69
2021/03/21 10:52:30;;;;;;;12.57;7.30;;;;;;;;;;775636;179;918568;-69
2021/03/21 10:55:02;;;;;;;14.50;6.30;;;;;;;;;;777362;179;903758;-69
2021/03/21 10:57:33;;;;;;;34.87;12.70;;;;;;;;;;772168;179;914013;-69
2021/03/21 11:00:16;;;;;;;15.55;7.30;;;;;;;;;;778237;179;923636;-68
2021/03/21 11:02:42;;;;;;;27.33;12.47;;;;;;;;;;778079;179;912344;-70
2021/03/21 11:05:08;;;;;;;15.53;10.90;;;;;;;;;;778254;179;919273;-71
2021/03/21 11:07:34;;;;;;;33.97;10.80;;;;;;;;;;773164;179;1161387;-70
2021/03/21 11:10:00;;;;;;;13.27;6.57;;;;;;;;;;780808;175;907220;-70
2021/03/21 11:12:28;;;;;;;11.43;6.17;;;;;;;;;;778399;179;918837;-68
2021/03/21 11:14:54;;;;;;;52.47;19.57;;;;;;;;;;764116;179;2831041;-70
2021/03/21 11:17:21;;;;;;;29.85;11.95;;;;;;;;;;783633;179;917871;-69
2021/03/21 11:19:47;;;;;;;17.13;10.50;;;;;;;;;;777059;179;918939;-70
2021/03/21 11:22:32;;;;;;;21.53;9.67;;;;;;;;;;770304;178;919025;-69
2021/03/21 11:24:58;;;;;;;25.25;16.40;;;;;;;;;;773099;178;918980;-68
2021/03/21 11:27:26;;;;;;;26.27;12.88;;;;;;;;;;783215;178;927746;-66
2021/03/21 11:29:52;;;;;;;18.87;13.50;;;;;;;;;;767916;182;917879;-69
2021/03/21 11:32:22;;;;;;;21.83;10.90;;;;;;;;;;776445;178;919670;-68
2021/03/21 11:34:53;;;;;;;16.33;10.80;;;;;;;;;;775980;178;919164;-69
2021/03/21 11:37:20;;;;;;;48.55;22.25;;;;;;;;;;781605;178;918658;-67
2021/03/21 11:39:47;;;;;;;40.90;18.40;;;;;;;;;;771616;178;2161038;-68
2021/03/21 11:42:18;;;;;;;60.92;25.90;;;;;;;;;;770603;179;943758;-70
2021/03/21 11:44:44;;;;;;;20.33;12.77;;;;;;;;;;773393;179;1094879;-70
2021/03/21 11:47:12;;;;;;;47.83;24.13;;;;;;;;;;784289;179;918466;-69
2021/03/21 11:49:37;;;;;;;66.07;31.60;;;;;;;;;;775869;179;919741;-72
2021/03/21 11:52:04;;;;;;;23.33;15.07;;;;;;;;;;777784;179;918610;-70
2021/03/21 11:54:30;;;;;;;31.10;14.23;;;;;;;;;;776690;179;919683;-68
2021/03/21 11:56:59;;;;;;;49.97;23.80;;;;;;;;;;768997;179;916541;-69
2021/03/21 11:59:23;;;;;;;18.60;12.27;;;;;;;;;;778358;179;918939;-70
2021/03/21 12:01:51;;;;;;;33.63;17.30;;;;;;;;;;771814;179;1677059;-71
2021/03/21 12:04:20;;;;;;;32.57;18.67;;;;;;;;;;781922;179;921230;-68
2021/03/21 12:06:45;;;;;;;37.50;16.63;;;;;;;;;;777111;179;918135;-68
2021/03/21 12:09:12;;;;;;;40.47;19.67;;;;;;;;;;778878;179;919156;-69
2021/03/21 12:11:39;;;;;;;27.30;14.27;;;;;;;;;;774268;179;919039;-68
2021/03/21 12:14:05;;;;;;;24.23;14.33;;;;;;;;;;774673;179;919636;-70
2021/03/21 12:16:37;;;;;;;26.97;13.73;;;;;;;;;;773397;179;927976;-69
2021/03/21 12:19:03;;;;;;;22.50;12.80;;;;;;;;;;780032;179;918531;-69
2021/03/21 12:21:29;;;;;;;25.13;13.37;;;;;;;;;;760367;179;3943364;-70
2021/03/21 12:24:04;;;;;;;16.13;11.03;;;;;;;;;;772895;179;915173;-70
2021/03/21 12:26:46;;;;;;;41.10;17.67;;;;;;;;;;775161;179;921152;-70
2021/03/21 12:29:16;;;;;;;26.63;16.47;;;;;;;;;;778882;179;1017674;-70
2021/03/21 12:31:42;;;;;;;22.33;14.40;;;;;;;;;;774615;178;1016012;-71
2021/03/21 12:34:14;;;;;;;19.87;13.17;;;;;;;;;;785363;178;918046;-71
2021/03/21 12:36:40;;;;;;;19.10;13.88;;;;;;;;;;773980;179;918576;-70
2021/03/21 12:39:24;;;;;;;24.03;13.53;;;;;;;;;;776956;178;918218;-70
2021/03/21 12:41:50;;;;;;;23.40;14.90;;;;;;;;;;770371;178;1989825;-69
2021/03/21 12:44:22;;;;;;;19.40;13.02;;;;;;;;;;778334;178;917834;-70
2021/03/21 12:46:48;;;;;;;27.53;17.50;;;;;;;;;;780476;178;916475;-69
2021/03/21 12:49:32;;;;;;;40.67;18.67;;;;;;;;;;779589;178;918411;-69
2021/03/21 12:51:59;;;;;;;38.47;16.67;;;;;;;;;;770572;179;916360;-70
2021/03/21 12:54:25;;;;;;;50.43;22.17;;;;;;;;;;779874;179;915806;-70
2021/03/21 12:56:51;;;;;;;33.50;15.67;;;;;;;;;;777772;179;915884;-69
2021/03/21 12:59:17;;;;;;;40.60;19.87;;;;;;;;;;781321;179;911962;-69
2021/03/21 13:01:44;;;;;;;35.87;16.80;;;;;;;;;;777801;178;928949;-69
2021/03/21 13:04:09;;;;;;;28.13;15.97;;;;;;;;;;772836;179;1311961;-66
2021/03/21 13:06:35;;;;;;;28.90;14.40;;;;;;;;;;782291;179;924391;-69
2021/03/21 13:09:02;;;;;;;30.13;14.83;;;;;;;;;;775267;179;913957;-68
2021/03/21 13:11:28;;;;;;;29.70;14.03;;;;;;;;;;778036;179;915089;-68
2021/03/21 13:13:54;;;;;;;15.75;9.02;;;;;;;;;;779183;179;913862;-68
2021/03/21 13:16:20;;;;;;;39.63;20.23;;;;;;;;;;779135;179;914250;-68
2021/03/21 13:18:46;;;;;;;33.37;16.60;;;;;;;;;;777258;179;915354;-68
2021/03/21 13:21:13;;;;;;;34.07;15.67;;;;;;;;;;777309;179;913090;-68
2021/03/21 13:23:37;;;;;;;21.67;12.30;;;;;;;;;;763174;182;1968066;-68
2021/03/21 13:26:03;;;;;;;39.47;19.37;;;;;;;;;;778486;179;934572;-68
2021/03/21 13:28:30;;;;;;;23.40;11.90;;;;;;;;;;775065;179;943511;-68
2021/03/21 13:30:57;;;;;;;38.27;19.03;;;;;;;;;;782720;179;916077;-68
2021/03/21 13:33:25;;;;;;;31.13;18.40;;;;;;;;;;778258;179;1019423;-68
2021/03/21 13:35:52;;;;;;;21.97;12.50;;;;;;;;;;777503;179;916322;-69
2021/03/21 13:38:17;;;;;;;23.07;10.70;;;;;;;;;;781006;179;922990;-68
2021/03/21 13:40:43;;;;;;;12.40;11.10;;;;;;;;;;773621;179;934739;-68
2021/03/21 13:43:09;;;;;;;21.63;10.80;;;;;;;;;;777487;176;915821;-68
2021/03/21 13:45:35;;;;;;;47.20;18.80;;;;;;;;;;777849;178;915636;-67
2021/03/21 13:48:01;;;;;;;19.57;13.53;;;;;;;;;;784682;178;915736;-67
2021/03/21 13:50:27;;;;;;;33.85;20.20;;;;;;;;;;776134;178;1163346;-69
2021/03/21 13:52:53;;;;;;;27.27;15.02;;;;;;;;;;782579;178;884323;-68
2021/03/21 13:55:21;;;;;;;34.30;17.83;;;;;;;;;;781455;178;915410;-68
2021/03/21 13:57:46;;;;;;;39.57;19.00;;;;;;;;;;780257;178;914899;-68
2021/03/21 14:00:13;;;;;;;87.17;31.10;;;;;;;;;;776991;178;916745;-68
2021/03/21 14:02:38;;;;;;;26.27;12.57;;;;;;;;;;783128;178;915427;-68
2021/03/21 14:05:05;;;;;;;16.13;10.47;;;;;;;;;;774647;179;915545;-68
2021/03/21 14:07:31;;;;;;;30.93;17.30;;;;;;;;;;777950;179;915648;-69
2021/03/21 14:09:56;;;;;;;33.67;14.85;;;;;;;;;;771404;179;1407722;-72
2021/03/21 14:12:22;;;;;;;20.80;12.60;;;;;;;;;;784779;179;889884;-70
2021/03/21 14:14:48;;;;;;;21.37;13.40;;;;;;;;;;778408;179;912311;-68